sensor_id;sensor_type;location;lat;lon;timestamp;P1;durP1;ratioP1;P2;durP2;ratioP2
21733;SDS011;11029;47.820;10.534;2023-10-13T00:00:27;3.38;;;2.08;;
21733;SDS011;11029;47.820;10.534;2023-10-13T00:03:03;3.97;;;1.98;;
21733;SDS011;11029;47.820;10.534;2023-10-13T00:05:32;5.40;;;2.08;;
21733;SDS011;11029;47.820;10.534;2023-10-13T00:08:00;5.43;;;2.60;;
21733;SDS011;11029;47.820;10.534;2023-10-13T00:10:32;5.57;;;2.47;;
21733;SDS011;11029;47.820;10.534;2023-10-13T00:13:02;3.80;;;2.00;;
21733;SDS011;11029;47.820;10.534;2023-10-13T00:15:47;3.63;;;2.13;;
21733;SDS011;11029;47.820;10.534;2023-10-13T00:18:25;5.63;;;2.15;;
21733;SDS011;11029;47.820;10.534;2023-10-13T00:21:08;3.15;;;1.95;;
21733;SDS011;11029;47.820;10.534;2023-10-13T00:23:43;7.75;;;2.92;;
21733;SDS011;11029;47.820;10.534;2023-10-13T00:26:24;5.60;;;3.15;;
21733;SDS011;11029;47.820;10.534;2023-10-13T00:28:57;5.20;;;2.20;;
21733;SDS011;11029;47.820;10.534;2023-10-13T00:31:28;5.38;;;2.20;;
21733;SDS011;11029;47.820;10.534;2023-10-13T00:34:02;6.68;;;2.50;;
21733;SDS011;11029;47.820;10.534;2023-10-13T00:36:45;3.70;;;2.15;;
21733;SDS011;11029;47.820;10.534;2023-10-13T00:39:35;4.18;;;2.03;;
21733;SDS011;11029;47.820;10.534;2023-10-13T00:42:04;4.97;;;2.20;;
21733;SDS011;11029;47.820;10.534;2023-10-13T00:44:34;6.22;;;2.20;;
21733;SDS011;11029;47.820;10.534;2023-10-13T00:47:08;5.57;;;1.85;;
21733;SDS011;11029;47.820;10.534;2023-10-13T00:49:36;4.75;;;2.40;;
21733;SDS011;11029;47.820;10.534;2023-10-13T00:52:06;7.07;;;2.17;;
21733;SDS011;11029;47.820;10.534;2023-10-13T00:54:36;4.00;;;1.67;;
21733;SDS011;11029;47.820;10.534;2023-10-13T00:57:03;3.15;;;1.77;;
21733;SDS011;11029;47.820;10.534;2023-10-13T00:59:38;5.75;;;2.33;;
21733;SDS011;11029;47.820;10.534;2023-10-13T01:02:08;6.88;;;2.10;;
21733;SDS011;11029;47.820;10.534;2023-10-13T01:04:53;3.70;;;2.10;;
21733;SDS011;11029;47.820;10.534;2023-10-13T01:07:21;4.07;;;2.13;;
21733;SDS011;11029;47.820;10.534;2023-10-13T01:09:50;3.15;;;2.25;;
21733;SDS011;11029;47.820;10.534;2023-10-13T01:12:16;6.07;;;2.40;;
21733;SDS011;11029;47.820;10.534;2023-10-13T01:14:43;3.30;;;1.90;;
21733;SDS011;11029;47.820;10.534;2023-10-13T01:17:12;2.83;;;1.80;;
21733;SDS011;11029;47.820;10.534;2023-10-13T01:19:39;5.45;;;2.15;;
21733;SDS011;11029;47.820;10.534;2023-10-13T01:22:09;6.70;;;2.00;;
21733;SDS011;11029;47.820;10.534;2023-10-13T01:24:36;5.38;;;2.20;;
21733;SDS011;11029;47.820;10.534;2023-10-13T01:27:04;4.63;;;2.10;;
21733;SDS011;11029;47.820;10.534;2023-10-13T01:29:52;3.03;;;2.20;;
21733;SDS011;11029;47.820;10.534;2023-10-13T01:32:36;3.42;;;2.20;;
21733;SDS011;11029;47.820;10.534;2023-10-13T01:35:11;3.45;;;2.00;;
21733;SDS011;11029;47.820;10.534;2023-10-13T01:37:38;3.80;;;1.95;;
21733;SDS011;11029;47.820;10.534;2023-10-13T01:40:05;8.00;;;1.92;;
21733;SDS011;11029;47.820;10.534;2023-10-13T01:42:32;4.03;;;1.98;;
21733;SDS011;11029;47.820;10.534;2023-10-13T01:45:02;4.40;;;1.98;;
21733;SDS011;11029;47.820;10.534;2023-10-13T01:47:32;2.72;;;1.65;;
21733;SDS011;11029;47.820;10.534;2023-10-13T01:49:59;3.50;;;1.60;;
21733;SDS011;11029;47.820;10.534;2023-10-13T01:52:47;1.92;;;1.73;;
21733;SDS011;11029;47.820;10.534;2023-10-13T01:55:14;6.25;;;2.20;;
21733;SDS011;11029;47.820;10.534;2023-10-13T01:57:41;2.90;;;1.90;;
21733;SDS011;11029;47.820;10.534;2023-10-13T02:00:13;6.57;;;1.85;;
21733;SDS011;11029;47.820;10.534;2023-10-13T02:02:46;2.75;;;2.00;;
21733;SDS011;11029;47.820;10.534;2023-10-13T02:05:16;3.90;;;1.83;;
21733;SDS011;11029;47.820;10.534;2023-10-13T02:07:43;3.75;;;2.00;;
21733;SDS011;11029;47.820;10.534;2023-10-13T02:10:12;4.15;;;2.03;;
21733;SDS011;11029;47.820;10.534;2023-10-13T02:12:39;3.20;;;1.95;;
21733;SDS011;11029;47.820;10.534;2023-10-13T02:15:10;2.55;;;1.75;;
21733;SDS011;11029;47.820;10.534;2023-10-13T02:17:47;4.55;;;2.00;;
21733;SDS011;11029;47.820;10.534;2023-10-13T02:20:18;7.05;;;1.92;;
21733;SDS011;11029;47.820;10.534;2023-10-13T02:22:49;4.95;;;2.20;;
21733;SDS011;11029;47.820;10.534;2023-10-13T02:25:16;4.78;;;2.10;;
21733;SDS011;11029;47.820;10.534;2023-10-13T02:28:01;6.65;;;2.20;;
21733;SDS011;11029;47.820;10.534;2023-10-13T02:30:28;3.72;;;1.90;;
21733;SDS011;11029;47.820;10.534;2023-10-13T02:32:55;3.03;;;2.00;;
21733;SDS011;11029;47.820;10.534;2023-10-13T02:35:24;6.70;;;1.90;;
21733;SDS011;11029;47.820;10.534;2023-10-13T02:38:09;2.97;;;1.83;;
21733;SDS011;11029;47.820;10.534;2023-10-13T02:40:40;5.38;;;1.80;;
21733;SDS011;11029;47.820;10.534;2023-10-13T02:43:06;3.70;;;1.75;;
21733;SDS011;11029;47.820;10.534;2023-10-13T02:45:34;4.72;;;2.30;;
21733;SDS011;11029;47.820;10.534;2023-10-13T02:48:04;6.15;;;2.50;;
21733;SDS011;11029;47.820;10.534;2023-10-13T02:50:40;4.80;;;2.25;;
21733;SDS011;11029;47.820;10.534;2023-10-13T02:53:10;3.83;;;1.80;;
21733;SDS011;11029;47.820;10.534;2023-10-13T02:55:51;4.78;;;1.85;;
21733;SDS011;11029;47.820;10.534;2023-10-13T07:31:39;7.18;;;3.45;;
21733;SDS011;11029;47.820;10.534;2023-10-13T07:34:08;6.68;;;2.58;;
21733;SDS011;11029;47.820;10.534;2023-10-13T07:36:53;7.93;;;2.75;;
21733;SDS011;11029;47.820;10.534;2023-10-13T07:39:22;9.88;;;2.55;;
21733;SDS011;11029;47.820;10.534;2023-10-13T07:41:52;7.38;;;2.40;;
21733;SDS011;11029;47.820;10.534;2023-10-13T07:44:30;6.70;;;2.15;;
21733;SDS011;11029;47.820;10.534;2023-10-13T07:47:01;6.13;;;2.38;;
21733;SDS011;11029;47.820;10.534;2023-10-13T07:49:38;3.97;;;1.92;;
21733;SDS011;11029;47.820;10.534;2023-10-13T07:52:10;6.25;;;2.03;;
21733;SDS011;11029;47.820;10.534;2023-10-13T07:54:56;4.95;;;1.98;;
21733;SDS011;11029;47.820;10.534;2023-10-13T07:57:39;5.95;;;2.13;;
21733;SDS011;11029;47.820;10.534;2023-10-13T08:00:25;4.57;;;1.92;;
21733;SDS011;11029;47.820;10.534;2023-10-13T08:02:58;5.72;;;1.90;;
21733;SDS011;11029;47.820;10.534;2023-10-13T08:05:52;4.18;;;2.00;;
21733;SDS011;11029;47.820;10.534;2023-10-13T08:08:24;3.05;;;1.80;;
21733;SDS011;11029;47.820;10.534;2023-10-13T08:10:52;5.00;;;2.30;;
21733;SDS011;11029;47.820;10.534;2023-10-13T08:13:27;7.45;;;2.28;;
21733;SDS011;11029;47.820;10.534;2023-10-13T08:15:54;6.72;;;2.47;;
21733;SDS011;11029;47.820;10.534;2023-10-13T08:18:20;10.00;;;2.58;;
21733;SDS011;11029;47.820;10.534;2023-10-13T12:27:02;4.60;;;1.65;;
21733;SDS011;11029;47.820;10.534;2023-10-13T12:29:44;4.15;;;1.70;;
21733;SDS011;11029;47.820;10.534;2023-10-13T12:32:13;5.43;;;1.80;;
21733;SDS011;11029;47.820;10.534;2023-10-13T12:34:41;4.90;;;1.75;;
21733;SDS011;11029;47.820;10.534;2023-10-13T12:37:23;5.15;;;1.77;;
21733;SDS011;11029;47.820;10.534;2023-10-13T12:40:10;4.82;;;1.70;;
21733;SDS011;11029;47.820;10.534;2023-10-13T12:42:58;5.25;;;2.05;;
21733;SDS011;11029;47.820;10.534;2023-10-13T12:45:44;9.82;;;1.52;;
21733;SDS011;11029;47.820;10.534;2023-10-13T12:48:31;3.90;;;2.08;;
21733;SDS011;11029;47.820;10.534;2023-10-13T12:51:17;4.32;;;1.90;;
21733;SDS011;11029;47.820;10.534;2023-10-13T12:56:15;3.83;;;1.58;;
21733;SDS011;11029;47.820;10.534;2023-10-13T12:58:43;2.72;;;1.67;;
21733;SDS011;11029;47.820;10.534;2023-10-13T16:58:43;6.00;;;2.30;;
21733;SDS011;11029;47.820;10.534;2023-10-13T17:01:11;4.15;;;2.70;;
21733;SDS011;11029;47.820;10.534;2023-10-13T17:03:42;7.60;;;2.83;;
21733;SDS011;11029;47.820;10.534;2023-10-13T17:06:13;5.35;;;2.80;;
21733;SDS011;11029;47.820;10.534;2023-10-13T17:08:40;5.68;;;2.63;;
21733;SDS011;11029;47.820;10.534;2023-10-13T17:11:17;4.55;;;2.38;;
21733;SDS011;11029;47.820;10.534;2023-10-13T17:13:47;7.55;;;3.30;;
21733;SDS011;11029;47.820;10.534;2023-10-13T17:18:45;9.77;;;2.75;;
21733;SDS011;11029;47.820;10.534;2023-10-13T17:21:14;7.53;;;3.38;;
21733;SDS011;11029;47.820;10.534;2023-10-13T17:23:41;6.38;;;2.55;;
21733;SDS011;11029;47.820;10.534;2023-10-13T17:26:08;4.55;;;2.83;;
21733;SDS011;11029;47.820;10.534;2023-10-13T17:28:37;4.55;;;2.88;;
21733;SDS011;11029;47.820;10.534;2023-10-13T17:31:05;6.93;;;2.90;;
21733;SDS011;11029;47.820;10.534;2023-10-13T17:33:32;6.35;;;2.80;;
21733;SDS011;11029;47.820;10.534;2023-10-13T17:35:59;6.85;;;2.65;;
21733;SDS011;11029;47.820;10.534;2023-10-13T17:38:25;7.90;;;3.17;;
21733;SDS011;11029;47.820;10.534;2023-10-13T17:40:52;6.40;;;2.70;;
21733;SDS011;11029;47.820;10.534;2023-10-13T17:43:19;8.73;;;4.18;;
21733;SDS011;11029;47.820;10.534;2023-10-13T17:45:46;9.70;;;3.50;;
21733;SDS011;11029;47.820;10.534;2023-10-13T17:48:15;9.63;;;4.18;;
21733;SDS011;11029;47.820;10.534;2023-10-13T17:50:43;12.68;;;6.35;;
21733;SDS011;11029;47.820;10.534;2023-10-13T17:53:10;63.53;;;31.02;;
21733;SDS011;11029;47.820;10.534;2023-10-13T17:55:36;398.33;;;193.63;;
21733;SDS011;11029;47.820;10.534;2023-10-13T17:58:05;738.55;;;415.02;;
